Sonic Adventure (DX): Time Rankings

Records: Times | Rings | Scores | Races | Bosses | Freestyle
Leaders: Times | Rings | Scores | Races | Bosses | Freestyle | Overall
Rank Player Percent Points Date
1 Sonicspeedruner 98.9% 53 07-30-15
2 Jawzun 95.8% 217 07-30-15
3 Dashjump 93.4% 342 07-30-15
4 DarkPolarNight 92.8% 375 07-30-15
5 F-Man 92.8% 378 07-30-15
6 THC98 91.8% 431 07-30-15
7 ike6252 90.0% 523 07-30-15
8 Avento128bits 89.8% 535 07-30-15
9 francisco 89.5% 550 07-30-15
10 DarkspinesSonic 89.1% 569 07-30-15
11 Marth 89.0% 576 07-30-15
12 Gamepro011 88.8% 587 07-30-15
13 frankoredstrato 87.7% 644 07-30-15
14 drminus 85.0% 788 07-30-15
15 Paragod 84.6% 806 07-30-15
16 HyperSonic7701 84.6% 810 07-30-15
17 chainchumper 84.4% 816 07-30-15
18 InferSaime 81.5% 969 07-30-15
19 TheRealShadnic 81.4% 974 07-30-15
20 Stefan 79.9% 1054 07-30-15
21 Redd 79.5% 1077 07-30-15
22 PfoSonic 79.3% 1086 07-30-15
23 Coolfansonic 77.6% 1173 07-30-15
24 bertin 77.6% 1177 07-30-15
25 yoshifan 77.1% 1203 07-30-15
26 xXMegaManXx 76.7% 1223 07-30-15
27 Dave Cramer 75.3% 1294 07-30-15
28 RPGnutter 74.8% 1322 07-30-15
29 Cybrax 73.3% 1402 07-30-15
30 sonicam 73.2% 1406 07-30-15
31 Ring Rush 70.3% 1558 07-30-15
32 mike89 69.6% 1598 07-30-15
33 NintenDan 69.3% 1611 07-30-15
34 a_moustache 67.7% 1696 07-30-15
35 SkyLights 65.4% 1819 07-30-15
36 Combo 63.9% 1895 07-30-15
37 SADXTryHard 61.8% 2008 07-30-15
38 P1 Pause 61.1% 2042 07-30-15
39 Nimrod 60.2% 2090 07-30-15
40 Groudon199 59.2% 2145 07-30-15
41 Game_Complete 59.0% 2153 07-30-15
42 AxlThunder 58.5% 2182 07-30-15
43 Shadow Jacky 58.4% 2185 07-30-15
44 Dawid8404 58.3% 2189 07-30-15
45 VMU Player Banned 57.6% 2227 07-30-15
46 Thorn 57.1% 2255 07-30-15
47 The Knuckles Chao 55.9% 2315 07-30-15
48 SB737 55.8% 2321 07-30-15
49 Parax 55.8% 2323 07-30-15
50 Chao_Fan 55.6% 2333 07-30-15
51 SadisticMystic 55.5% 2339 07-30-15
52 KinkyCadence 54.9% 2368 07-30-15
53 LittleBigness 54.9% 2372 07-30-15
54 mauserman 54.7% 2378 07-30-15
55 Psyknux 54.6% 2383 07-30-15
56 Mastakirby 54.6% 2384 07-30-15
57 OmegaDJ 54.6% 2386 07-30-15
58 magnum12 53.7% 2432 07-30-15
59 Auriman1 53.6% 2438 07-30-15
60 Turbos 53.2% 2460 07-30-15
61 GreatStar 52.7% 2486 07-30-15
62 GerbilSoft 52.7% 2487 07-30-15
63 Webber3000 51.9% 2530 07-30-15
64 Hipertails12 51.5% 2550 07-30-15
65 James_Bertolli 48.5% 2704 07-30-15
66 Cream147 48.2% 2724 07-30-15
67 Skylace 47.7% 2746 07-30-15
68 Diamond 47.6% 2753 07-30-15
69 welldooder64 47.5% 2760 07-30-15
70 Omega Rafael Santos 47.5% 2761 07-30-15
71 Quartz 47.1% 2779 07-30-15
72 Psymar 47.0% 2783 07-30-15
73 SonicWinDX 46.7% 2799 07-30-15
74 teamblackarms 45.7% 2852 07-30-15
75 buddychaos0415 45.1% 2884 07-30-15
76 SilverSonic 44.7% 2908 07-30-15
77 Andrea Ritsu 44.1% 2940 07-30-15
78 itsPersonnal 44.0% 2941 07-30-15
78 WeegeeZV 44.0% 2941 07-30-15
80 SilvertheAlmighty 43.7% 2957 07-30-15
81 metanightmare22 42.8% 3004 07-30-15
82 lordmetalsonic 40.7% 3116 07-30-15
83 Arch 40.4% 3134 07-30-15
84 Termon 40.2% 3145 07-30-15
85 videogamemaster777 39.5% 3180 07-30-15
86 supersonicfan 39.2% 3198 07-30-15
87 Kanimayo_Jp 38.9% 3209 07-30-15
88 Drakodan 38.8% 3215 07-30-15
89 paulie9990 38.3% 3241 07-30-15
90 LilZero 38.2% 3246 07-30-15
91 FuzZerd 37.9% 3263 07-30-15
92 Don 37.3% 3293 07-30-15
93 eggFL 37.2% 3299 07-30-15
94 Fr3nZy 35.9% 3370 07-30-15
95 Siavash Tazari 35.8% 3376 07-30-15
96 Cod4Scopes 35.0% 3417 07-30-15
97 f0rever_zer0 34.6% 3435 07-30-15
98 Austinf 34.2% 3461 07-30-15
99 Cyan Ryan 34.0% 3468 07-30-15
100 supersonic465 33.8% 3478 07-30-15
101 LinksDarkArrows 33.7% 3486 07-30-15
102 Therio 33.6% 3488 07-30-15
103 danieldude 33.1% 3515 07-30-15
104 elecmouse101 32.7% 3535 07-30-15
105 Staf 32.6% 3544 07-30-15
106 MiStEr_ShAoLiN 32.3% 3556 07-30-15
107 BrokenArthritis 32.3% 3561 07-30-15
108 Xia 31.2% 3615 07-30-15
109 welshmoose05 30.7% 3640 07-30-15
110 OddCook 29.9% 3686 07-30-15
111 Mcshuggets 29.8% 3692 07-30-15
112 The Great Lord Mick 29.6% 3701 07-30-15
113 Maxinfamily 29.4% 3713 07-30-15
114 joecoolgames 29.2% 3723 07-30-15
115 Aitamen 29.1% 3727 07-30-15
116 videogamer1014 28.9% 3737 07-30-15
117 imazor017 28.8% 3740 07-30-15
118 Matt_TY 28.8% 3742 07-30-15
119 dabestgamer 28.6% 3754 07-30-15
120 SuperSonic101 27.6% 3805 07-30-15
121 Hunters13 27.3% 3820 07-30-15
122 Shadowthegreat 27.2% 3826 07-30-15
123 superjupi 27.2% 3827 07-30-15
124 Rolken 26.7% 3854 07-30-15
125 SaviourDC 26.4% 3870 07-30-15
126 iarebored 26.4% 3871 07-30-15
127 sonamyfan666 26.0% 3888 07-30-15
128 Spinballwizard 25.8% 3900 07-30-15
129 SonicKnuckles 25.7% 3908 07-30-15
130 adf 24.7% 3958 07-30-15
130 EngiNerd 24.7% 3958 07-30-15
132 Megaman EXE565 24.0% 3996 07-30-15
133 The T 23.7% 4013 07-30-15
134 Platformer 23.2% 4037 07-30-15
135 Pokemonmaster888 23.0% 4047 07-30-15
135 Sonic Singularity 23.0% 4047 07-30-15
137 SeaWolf 22.9% 4051 07-30-15
138 Swift Hobo 22.5% 4076 07-30-15
139 timpkmn89 22.4% 4078 07-30-15
140 ethmar 22.2% 4088 07-30-15
141 Rickyman48 22.0% 4098 07-30-15
142 Sondow 21.7% 4116 07-30-15
143 FoxBoy 21.2% 4142 07-30-15
144 TFEC Headshot 21.0% 4153 07-30-15
145 KitsuneYamaro 21.0% 4154 07-30-15
146 Jerzia 20.8% 4161 07-30-15
147 Kogen Player Banned 20.5% 4181 07-30-15
148 Starlight Sable 19.9% 4211 07-30-15
149 IsisDazs 19.5% 4233 07-30-15
150 HyperSonic64 19.1% 4252 07-30-15
151 crazy1993 18.8% 4270 07-30-15
152 andres430 18.5% 4284 07-30-15
153 SonicU260 17.4% 4340 07-30-15
154 SonicAD 17.3% 4347 07-30-15
155 sonicd5 17.2% 4352 07-30-15
156 MPit08 17.1% 4356 07-30-15
157 iSonicKid2K 16.5% 4389 07-30-15
158 dShadow 16.5% 4391 07-30-15
159 Miles9999 16.0% 4415 07-30-15
160 Chawkk 15.9% 4421 07-30-15
161 Cutiefox 15.8% 4424 07-30-15
162 BigAL49 15.8% 4425 07-30-15
163 Monkeh 15.6% 4435 07-30-15
164 DaDude 15.3% 4454 07-30-15
165 Drflash55 15.0% 4468 07-30-15
166 Yish 14.7% 4483 07-30-15
167 Bass 14.4% 4500 07-30-15
168 neaolas 14.4% 4501 07-30-15
169 UninspiredUsername 14.2% 4509 07-30-15
170 Cruizer 14.2% 4511 07-30-15
171 superiorsonic 14.2% 4513 07-30-15
172 zapp 14.0% 4520 07-30-15
173 gamefreak1292 13.8% 4530 07-30-15
174 Cooljay 13.0% 4572 07-30-15
175 Chaos_Overlord 12.8% 4583 07-30-15
176 Valfore 12.3% 4608 07-30-15
177 GarnetPrincess 12.0% 4627 07-30-15
177 ShinigamiMachine 12.0% 4627 07-30-15
179 soniccoloursunleashed 11.7% 4641 07-30-15
180 Sonicsuperstar1 11.5% 4654 07-30-15
181 FocusSight64 11.0% 4679 07-30-15
182 Werey 10.9% 4685 07-30-15
183 booo95 10.7% 4694 07-30-15
183 SirTobbii 10.7% 4694 07-30-15
185 Mo Player Banned 10.5% 4704 07-30-15
186 sonicspeed 10.3% 4713 07-30-15
187 Venick409 9.9% 4737 07-30-15
188 Sithwarrior26 9.6% 4755 07-30-15
189 ingx24 9.2% 4776 07-30-15
190 CyberShadow 9.0% 4784 07-30-15
191 Fozer 8.7% 4802 07-30-15
192 Colomb_30 8.4% 4816 07-30-15
193 Regano1000 8.3% 4820 07-30-15
194 1stKirbyever 8.0% 4836 07-30-15
195 Brian_pso 7.7% 4852 07-30-15
196 nuckrieg 7.6% 4856 07-30-15
197 Th4tN1nj4Turtl3 7.4% 4868 07-30-15
198 douglas 7.4% 4869 07-30-15
199 TakaRikka 7.4% 4870 07-30-15
200 Zip 7.2% 4880 07-30-15
201 Mariosonic15 7.0% 4889 07-30-15
202 wheatrich 6.9% 4897 07-30-15
203 MStitomix 6.7% 4904 07-30-15
204 ieatatsonic 6.6% 4911 07-30-15
205 HermitHelmet 6.6% 4912 07-30-15
206 niscool 6.4% 4921 07-30-15
207 Cort_pso 6.4% 4922 07-30-15
208 Got4n 6.4% 4923 07-30-15
209 Triseena 6.3% 4928 07-30-15
210 Jose_15 6.1% 4938 07-30-15
211 Artie 5.9% 4949 07-30-15
212 SuperSonicfan9595 5.8% 4953 07-30-15
213 BlankTH 5.8% 4954 07-30-15
214 HHNNBBHHN 5.6% 4965 07-30-15
215 Ace747 5.5% 4968 07-30-15
216 Richied 5.3% 4976 07-30-15
217 Paixii 5.2% 4982 07-30-15
218 FSSRandomvids 4.9% 4998 07-30-15
219 BallzeH 4.9% 5000 07-30-15
220 slade23 4.9% 5001 07-30-15
221 ArcticDragon 4.8% 5003 07-30-15
222 PsyBorg 4.8% 5005 07-30-15
223 Jamixesa 4.8% 5007 07-30-15
223 Mankster101 4.8% 5007 07-30-15
225 BecauseWarAnvil 4.7% 5010 07-30-15
226 Crydio 4.6% 5014 07-30-15
227 Nickson98 4.6% 5018 07-30-15
228 TheUltraBlur 4.4% 5025 07-30-15
229 ReuelBrony 4.4% 5027 07-30-15
230 stanski 4.3% 5033 07-30-15
231 MarewBFN 4.2% 5037 07-30-15
232 tal39h 4.0% 5046 07-30-15
233 Blue Infamy 3.9% 5050 07-30-15
234 knuckles_sonic8 3.9% 5051 07-30-15
234 p0ker 3.9% 5051 07-30-15
236 ErrortheCucco 3.8% 5060 07-30-15
237 Rikum22 3.7% 5063 07-30-15
238 sonic1001 3.5% 5071 07-30-15
239 TheChaosEmeraIds 3.5% 5073 07-30-15
240 syco1098 3.4% 5078 07-30-15
241 AJSIV 3.4% 5079 07-30-15
242 Sonic the Hedgehod16 3.3% 5082 07-30-15
243 sonicfan9 3.3% 5085 07-30-15
244 Calfd 3.2% 5090 07-30-15
245 themachoman202 2.9% 5103 07-30-15
246 RealProjectMVP1 PSN 2.9% 5105 07-30-15
247 MK 2.8% 5108 07-30-15
248 BlackArmsShadow 2.7% 5113 07-30-15
248 Fivavoa 2.7% 5113 07-30-15
250 Mr. Jones 2.7% 5114 07-30-15
251 djmat 2.7% 5115 07-30-15
252 arcfx1985 2.7% 5116 07-30-15
253 ptorflaxendrosis 2.7% 5117 07-30-15
254 FlandreScarlet9999vr 2.6% 5121 07-30-15
254 Sonique Hedgehog 2.6% 5121 07-30-15
256 Zeldocto 2.5% 5126 07-30-15
257 KaM Mark MaK 2.4% 5130 07-30-15
258 BeeAwwb 2.4% 5133 07-30-15
259 ShadouZaHejjihoggu 2.3% 5137 07-30-15
260 darkstarblaze 2.1% 5145 07-30-15
261 darkersupershadic 2.1% 5146 07-30-15
262 SpiritDragon1995 2.1% 5147 07-30-15
263 sonic29887 2.1% 5149 07-30-15
264 Grady219 2.0% 5152 07-30-15
264 Sarger001 2.0% 5152 07-30-15
266 Jawaah 1.9% 5155 07-30-15
267 shadowblast63 Player Banned 1.9% 5157 07-30-15
268 Antek 1.8% 5161 07-30-15
269 Klaus 1.8% 5163 07-30-15
270 BioShadow 1.7% 5168 07-30-15
271 SkyBon 1.4% 5182 07-30-15
272 Shanekilz 1.4% 5184 07-30-15
273 isaihtb11 1.3% 5188 07-30-15
274 OhNoes! 1.3% 5189 07-30-15
275 zaktu40 1.3% 5191 07-30-15
276 S-MS32X-S 1.2% 5193 07-30-15
277 gaara1234 1.2% 5194 07-30-15
278 MastaToken 1.1% 5201 07-30-15
279 Mister_Slick 1.0% 5204 07-30-15
280 Sonic06Fan 1.0% 5206 07-30-15
281 Rush Hero 0.9% 5208 07-30-15
282 SonicMega167 0.9% 5212 07-30-15
283 oTaiIilLsS 0.8% 5214 07-30-15
284 gamed00d 0.8% 5215 07-30-15
284 SilverK 0.8% 5215 07-30-15
286 Egor305 0.7% 5223 07-30-15
287 Burningskull123 0.5% 5231 07-30-15
288 Heroes_Hater 0.5% 5232 07-30-15
289 Sonicontherun 0.3% 5240 07-30-15
290 antiwwe 0.2% 5246 07-30-15
291 Iwannabelink 0.2% 5249 07-30-15
292 Genuine Hedgehog 0.1% 5250 07-30-15
293 dragondragon18 0.1% 5253 07-30-15
294 SonicK100 0.1% 5254 07-30-15
295 Tyrouble 0.0% 5259 07-30-15
296 LancexExWx 0.0% 5260 07-30-15
296 neji_hyuuga 0.0% 5260 07-30-15
296 Over 0.0% 5260 07-30-15
296 sdj6707 Player Banned 0.0% 5260 07-30-15
296 Tran Sonic Fan Player Banned 0.0% 5260 07-30-15

This page is using the New Data Table System. [FUTURE]

Game ID: 3 | Category ID: 1
Hits: 7,429 | Hits This Month: 1 | DB Calls: 24 | Mem Usage: 5.44 MB | Time: 0.15s | Printable

The Sonic Center v3.9
Copyright 2003-2011 by The Sonic Center Team.